Terminal Aerodrome Forecast
Issued by NWS Knoxville/Tri Cities, TN

Home | Current Version | Previous Version | Text Only | Print | Product List | Glossary On
Versions: 1 2 3 4 5 6 7 8 9 10 11 12 13 14 15 16 17 18 19 20 21 22 23 24 25
000
FTUS44 KMRX 251722
TAFCHA
TAF
KCHA 251722Z 2518/2618 14011KT P6SM SCT030 BKN050
     FM252000 17008KT P6SM VCTS BKN040CB
      TEMPO 2520/2524 5SM -SHRA BR SCT028 OVC035
     FM260000 16004KT P6SM VCSH BKN050
     FM261400 19005KT P6SM SCT050 BKN080=

USA.gov is the U.S. government's official web portal to all federal, state and local government web resources and services.